Willebroek, Belgium
Current Conditions -  °F | °C
As of 10:20 AM on Wednesday 22 Oct 2014 (Local Time) from EBAW Reporting Station
Scattered Clouds Scattered Clouds  
Wind Chill: 50°   Ceiling: Unl
Heat Index: 50°   Visibility: 6mi
Dew Point: 43°   Wind: 17mph
Humidity: 76%   Direction: 300°WNW
Pressure: 30.12"   Gusts: NA
Location:  51.06°N, 4.36°E
Report Text: EBAW 220820Z 30015KT 9999 FEW025 SCT033 10/06 Q1020 TEMPO 30015G25KT 4500 SHRA
Loading
Personal Weather Stations






























Interactive Weather Map
Tropical Storm Tracking
New forecast layout! Learn more

10-Day Weather Forecast

Advertisements
Track Severe Weather on mobile